createdAt,value
2023-06-01T00:01:53.315Z,3.78
2023-06-01T00:04:19.857Z,3.95
2023-06-01T00:06:46.457Z,3.63
2023-06-01T00:09:12.966Z,4.22
2023-06-01T00:11:39.513Z,4.38
2023-06-01T00:14:06.165Z,3.88
2023-06-01T00:16:32.797Z,3.90
2023-06-01T00:19:01.618Z,4.03
2023-06-01T00:21:28.714Z,3.90
2023-06-01T00:23:55.475Z,4.60
2023-06-01T00:26:22.270Z,3.95
2023-06-01T00:28:48.910Z,4.10
2023-06-01T00:31:15.496Z,3.80
2023-06-01T00:33:42.052Z,4.18
2023-06-01T00:36:08.749Z,3.65
2023-06-01T00:38:35.336Z,4.25
2023-06-01T00:41:02.182Z,4.00
2023-06-01T00:43:29.004Z,4.72
2023-06-01T00:45:55.519Z,3.85
2023-06-01T00:48:24.261Z,4.10
2023-06-01T00:50:50.895Z,3.85
2023-06-01T00:53:20.943Z,3.70
2023-06-01T00:55:47.790Z,3.85
2023-06-01T00:58:14.547Z,4.10
2023-06-01T01:00:41.312Z,4.22
2023-06-01T01:03:11.550Z,3.88
2023-06-01T01:05:39.066Z,4.72
2023-06-01T01:08:21.269Z,3.83
2023-06-01T01:10:50.565Z,4.10
2023-06-01T01:13:24.856Z,3.90
2023-06-01T01:16:13.644Z,4.10
2023-06-01T01:19:26.032Z,4.30
2023-06-01T01:22:16.944Z,4.40
2023-06-01T01:24:52.455Z,3.92
2023-06-01T01:27:27.533Z,3.97
2023-06-01T01:29:54.328Z,3.67
2023-06-01T01:32:21.431Z,4.50
2023-06-01T01:34:48.035Z,3.88
2023-06-01T01:37:14.533Z,3.47
2023-06-01T01:39:41.259Z,3.72
2023-06-01T01:42:08.512Z,3.45
2023-06-01T01:44:35.069Z,3.83
2023-06-01T01:47:16.056Z,3.33
2023-06-01T01:49:47.630Z,3.90
2023-06-01T01:52:18.309Z,3.90
2023-06-01T01:54:46.039Z,3.80
2023-06-01T01:57:13.640Z,3.80
2023-06-01T01:59:40.263Z,3.65
2023-06-01T02:02:06.857Z,4.00
2023-06-01T02:04:33.744Z,3.97
2023-06-01T02:07:00.492Z,3.60
2023-06-01T02:09:27.629Z,3.92
2023-06-01T02:11:54.234Z,3.72
2023-06-01T02:14:20.872Z,3.70
2023-06-01T02:16:47.477Z,3.60
2023-06-01T02:19:16.528Z,3.35
2023-06-01T02:21:43.841Z,3.67
2023-06-01T02:24:10.598Z,3.33
2023-06-01T02:26:37.105Z,3.75
2023-06-01T02:29:06.033Z,3.67
2023-06-01T02:31:33.557Z,4.47
2023-06-01T02:34:00.609Z,3.88
2023-06-01T02:36:29.202Z,3.63
2023-06-01T02:38:57.279Z,3.47
2023-06-01T02:41:24.024Z,3.90
2023-06-01T02:43:53.136Z,4.00
2023-06-01T02:46:20.362Z,3.72
2023-06-01T02:48:47.170Z,3.58
2023-06-01T02:51:13.791Z,3.88
2023-06-01T02:53:41.142Z,3.80
2023-06-01T02:56:07.895Z,3.45
2023-06-01T02:58:34.499Z,3.53
2023-06-01T03:01:01.887Z,4.13
2023-06-01T03:03:28.748Z,3.83
2023-06-01T03:05:56.301Z,3.72
2023-06-01T03:08:25.750Z,3.53
2023-06-01T03:10:52.324Z,3.67
2023-06-01T03:13:18.864Z,3.88
2023-06-01T03:15:45.771Z,3.80
2023-06-01T03:18:12.679Z,4.07
2023-06-01T03:20:39.332Z,4.25
2023-06-01T03:23:06.010Z,3.97
2023-06-01T03:25:34.414Z,3.92
2023-06-01T03:28:01.151Z,4.00
2023-06-01T03:30:27.675Z,3.70
2023-06-01T03:32:54.330Z,3.15
2023-06-01T03:35:20.901Z,3.15
2023-06-01T03:37:47.995Z,3.55
2023-06-01T03:40:14.968Z,3.65
2023-06-01T03:42:46.095Z,3.45
2023-06-01T03:45:13.683Z,3.40
2023-06-01T03:47:40.533Z,3.80
2023-06-01T03:50:08.358Z,3.05
2023-06-01T03:52:34.955Z,3.13
2023-06-01T03:55:11.903Z,3.35
2023-06-01T03:57:38.864Z,5.45
2023-06-01T04:00:20.933Z,3.08
2023-06-01T04:03:00.361Z,3.13
2023-06-01T04:05:27.676Z,3.25
2023-06-01T04:07:55.514Z,3.10
2023-06-01T04:10:22.155Z,3.47
2023-06-01T04:12:52.063Z,3.60
2023-06-01T04:15:20.128Z,3.25
2023-06-01T04:17:46.773Z,3.45
2023-06-01T04:20:15.104Z,3.22
2023-06-01T04:22:42.062Z,5.75
2023-06-01T04:25:13.099Z,4.22
2023-06-01T04:27:45.794Z,3.03
2023-06-01T04:32:39.339Z,3.35
2023-06-01T04:35:06.596Z,3.03
2023-06-01T04:37:42.613Z,2.88
2023-06-01T04:40:10.880Z,2.90
2023-06-01T04:42:42.254Z,3.10
2023-06-01T04:45:10.462Z,2.92
2023-06-01T04:47:41.403Z,2.90
2023-06-01T04:50:11.307Z,3.03
2023-06-01T04:52:41.121Z,2.67
2023-06-01T04:55:08.601Z,2.97
2023-06-01T04:57:36.554Z,3.80
2023-06-01T05:00:07.297Z,2.78
2023-06-01T05:02:33.904Z,3.20
2023-06-01T05:05:00.558Z,3.00
2023-06-01T05:07:27.084Z,3.30
2023-06-01T05:09:53.618Z,3.00
2023-06-01T05:12:21.772Z,2.85
2023-06-01T05:14:48.620Z,2.60
2023-06-01T05:17:15.240Z,2.55
2023-06-01T05:19:42.353Z,2.63
2023-06-01T05:22:08.910Z,2.15
2023-06-01T05:24:35.430Z,2.13
2023-06-01T05:27:02.060Z,3.58
2023-06-01T05:29:28.568Z,2.88
2023-06-01T05:31:55.137Z,2.20
2023-06-01T05:34:22.155Z,2.53
2023-06-01T05:36:49.747Z,2.15
2023-06-01T05:39:16.435Z,3.00
2023-06-01T05:41:42.987Z,2.15
2023-06-01T05:44:09.515Z,2.45
2023-06-01T05:46:36.038Z,2.13
2023-06-01T05:49:02.587Z,2.03
2023-06-01T05:51:29.089Z,2.92
2023-06-01T05:53:55.757Z,2.10
2023-06-01T05:56:22.261Z,2.30
2023-06-01T05:58:53.990Z,2.42
2023-06-01T06:01:21.165Z,2.25
2023-06-01T06:03:48.463Z,2.65
2023-06-01T06:06:15.201Z,2.53
2023-06-01T06:08:41.733Z,2.42
2023-06-01T06:11:08.298Z,2.35
2023-06-01T06:13:34.842Z,2.42
2023-06-01T06:16:01.390Z,1.85
2023-06-01T06:18:27.968Z,2.08
2023-06-01T06:20:54.463Z,2.45
2023-06-01T06:23:22.644Z,2.85
2023-06-01T06:25:49.650Z,2.25
2023-06-01T06:28:16.621Z,2.42
2023-06-01T06:30:43.179Z,2.60
2023-06-01T06:33:11.567Z,2.13
2023-06-01T06:35:42.355Z,2.65
2023-06-01T06:38:08.935Z,2.50
2023-06-01T06:40:35.550Z,2.67
2023-06-01T06:43:02.475Z,2.30
2023-06-01T06:45:29.031Z,2.10
2023-06-01T06:47:55.657Z,2.80
2023-06-01T06:50:22.352Z,1.67
2023-06-01T06:52:48.922Z,2.30
2023-06-01T06:55:15.794Z,2.22
2023-06-01T06:57:42.300Z,2.22
2023-06-01T07:00:09.774Z,1.90
2023-06-01T07:02:36.411Z,2.28
2023-06-01T07:05:05.080Z,2.45
2023-06-01T07:07:31.696Z,3.20
2023-06-01T07:09:58.224Z,2.45
2023-06-01T07:12:24.813Z,2.33
2023-06-01T07:14:53.435Z,2.70
2023-06-01T07:17:21.008Z,2.83
2023-06-01T07:19:47.791Z,2.13
2023-06-01T07:22:14.849Z,2.25
2023-06-01T07:24:41.555Z,2.58
2023-06-01T07:27:08.852Z,4.22
2023-06-01T07:29:35.850Z,2.85
2023-06-01T07:32:02.540Z,1.75
2023-06-01T07:34:29.193Z,2.10
2023-06-01T07:37:08.868Z,3.63
2023-06-01T07:39:43.271Z,2.72
2023-06-01T07:42:09.847Z,1.98
2023-06-01T07:44:36.772Z,2.70
2023-06-01T07:47:03.536Z,2.42
2023-06-01T07:49:30.396Z,2.20
2023-06-01T07:51:57.748Z,2.13
2023-06-01T07:54:24.347Z,2.90
2023-06-01T07:56:51.003Z,2.13
2023-06-01T07:59:17.539Z,2.22
2023-06-01T08:01:44.336Z,2.33
2023-06-01T08:04:11.871Z,2.65
2023-06-01T08:06:39.367Z,2.35
2023-06-01T08:09:06.734Z,2.40
2023-06-01T08:11:33.372Z,2.30
2023-06-01T08:14:01.126Z,2.80
2023-06-01T08:16:28.022Z,2.60
2023-06-01T08:18:54.729Z,2.63
2023-06-01T08:21:21.438Z,2.47
2023-06-01T08:23:48.557Z,2.50
2023-06-01T08:26:15.426Z,2.53
2023-06-01T08:28:42.261Z,2.88
2023-06-01T08:31:08.989Z,2.60
2023-06-01T08:33:35.602Z,2.17
2023-06-01T08:36:02.515Z,2.67
2023-06-01T08:38:33.472Z,3.45
2023-06-01T08:41:00.432Z,3.15
2023-06-01T08:43:26.958Z,2.72
2023-06-01T08:45:53.629Z,2.58
2023-06-01T08:48:22.433Z,2.85
2023-06-01T08:50:52.126Z,2.90
2023-06-01T08:53:19.541Z,3.00
2023-06-01T08:55:47.386Z,3.13
2023-06-01T08:58:13.959Z,2.85
2023-06-01T09:00:40.546Z,2.92
2023-06-01T09:03:07.909Z,2.97
2023-06-01T09:05:34.538Z,2.83
2023-06-01T09:08:01.187Z,2.80
2023-06-01T09:10:28.038Z,3.05
2023-06-01T09:12:56.049Z,3.70
2023-06-01T09:15:23.156Z,3.20
2023-06-01T09:17:51.345Z,3.00
2023-06-01T09:20:25.427Z,3.00
2023-06-01T09:22:53.806Z,2.90
2023-06-01T09:25:30.584Z,3.33
2023-06-01T09:27:58.000Z,3.30
2023-06-01T09:30:25.664Z,3.03
2023-06-01T09:32:54.111Z,4.03
2023-06-01T09:35:40.902Z,3.97
2023-06-01T09:38:07.581Z,3.42
2023-06-01T09:40:34.970Z,3.15
2023-06-01T09:43:03.500Z,3.03
2023-06-01T09:45:31.677Z,3.13
2023-06-01T09:48:16.681Z,2.92
2023-06-01T09:50:44.031Z,2.90
2023-06-01T09:53:10.611Z,2.95
2023-06-01T09:55:37.158Z,2.50
2023-06-01T09:58:22.874Z,3.38
2023-06-01T10:00:50.815Z,3.22
2023-06-01T10:03:18.077Z,2.83
2023-06-01T10:05:45.581Z,3.00
2023-06-01T10:08:13.495Z,3.00
2023-06-01T10:10:40.964Z,3.50
2023-06-01T10:13:11.501Z,3.40
2023-06-01T10:15:38.032Z,3.15
2023-06-01T10:18:05.555Z,3.08
2023-06-01T10:20:36.214Z,2.70
2023-06-01T10:23:03.770Z,3.17
2023-06-01T10:25:49.566Z,2.92
2023-06-01T10:28:16.236Z,2.40
2023-06-01T10:30:42.803Z,2.75
2023-06-01T10:33:09.490Z,3.00
2023-06-01T10:35:41.902Z,3.20
2023-06-01T10:38:08.377Z,2.65
2023-06-01T10:40:35.396Z,4.97
2023-06-01T10:43:01.978Z,2.72
2023-06-01T10:45:34.458Z,2.90
2023-06-01T10:48:01.990Z,2.92
2023-06-01T10:50:28.572Z,3.03
2023-06-01T10:52:55.396Z,2.83
2023-06-01T10:55:24.825Z,2.42
2023-06-01T10:57:53.241Z,2.58
2023-06-01T11:00:29.329Z,2.30
2023-06-01T11:03:01.037Z,2.75
2023-06-01T11:05:48.106Z,2.63
2023-06-01T11:08:17.887Z,2.83
2023-06-01T11:10:59.749Z,2.30
2023-06-01T11:13:31.095Z,2.38
2023-06-01T11:16:20.034Z,2.90
2023-06-01T11:18:59.482Z,2.80
2023-06-01T11:21:29.649Z,3.00
2023-06-01T11:23:59.858Z,2.90
2023-06-01T11:26:42.841Z,2.88
2023-06-01T11:29:10.627Z,2.65
2023-06-01T11:31:38.818Z,2.67
2023-06-01T11:34:05.595Z,3.22
2023-06-01T11:36:37.796Z,2.78
2023-06-01T11:39:16.804Z,3.00
2023-06-01T11:41:47.319Z,2.80
2023-06-01T11:44:13.831Z,2.70
2023-06-01T11:46:51.779Z,3.00
2023-06-01T11:49:18.307Z,2.50
2023-06-01T11:51:44.808Z,3.53
2023-06-01T11:54:11.394Z,2.67
2023-06-01T11:56:40.271Z,2.90
2023-06-01T11:59:09.781Z,2.58
2023-06-01T12:01:43.672Z,3.53
2023-06-01T12:04:17.337Z,2.92
2023-06-01T12:06:44.183Z,2.40
2023-06-01T12:09:10.800Z,2.40
2023-06-01T12:11:38.446Z,2.65
2023-06-01T12:14:07.036Z,2.50
2023-06-01T12:16:55.699Z,2.53
2023-06-01T12:19:22.720Z,2.65
2023-06-01T12:21:51.887Z,2.58
2023-06-01T12:24:32.158Z,2.60
2023-06-01T12:26:59.805Z,2.38
2023-06-01T12:29:39.596Z,2.40
2023-06-01T12:32:06.533Z,2.65
2023-06-01T12:34:33.051Z,2.70
2023-06-01T12:36:59.659Z,2.50
2023-06-01T12:39:37.721Z,2.60
2023-06-01T12:42:06.211Z,2.80
2023-06-01T12:44:36.537Z,2.63
2023-06-01T12:47:04.933Z,2.33
2023-06-01T12:49:31.548Z,2.63
2023-06-01T12:51:58.176Z,2.47
2023-06-01T12:54:24.709Z,2.75
2023-06-01T12:56:51.850Z,7.63
2023-06-01T12:59:18.467Z,2.60
2023-06-01T13:01:45.082Z,2.38
2023-06-01T13:04:11.933Z,2.22
2023-06-01T13:06:40.330Z,2.38
2023-06-01T13:09:07.779Z,2.42
2023-06-01T13:11:34.446Z,2.80
2023-06-01T13:14:01.094Z,2.55
2023-06-01T13:16:28.414Z,2.33
2023-06-01T13:18:55.550Z,2.80
2023-06-01T13:21:22.278Z,2.33
2023-06-01T13:23:49.306Z,2.40
2023-06-01T13:26:16.047Z,2.42
2023-06-01T13:28:42.722Z,2.80
2023-06-01T13:31:09.695Z,2.60
2023-06-01T13:33:36.257Z,2.47
2023-06-01T13:36:03.072Z,2.47
2023-06-01T13:38:29.771Z,2.28
2023-06-01T13:40:56.458Z,2.50
2023-06-01T13:43:23.096Z,2.50
2023-06-01T13:45:49.648Z,2.53
2023-06-01T13:48:18.624Z,2.53
2023-06-01T13:50:47.204Z,2.33
2023-06-01T13:53:13.743Z,2.90
2023-06-01T13:55:40.749Z,2.72
2023-06-01T13:58:07.271Z,2.38
2023-06-01T14:00:34.082Z,2.55
2023-06-01T14:03:01.070Z,2.75
2023-06-01T14:05:36.072Z,2.60
2023-06-01T14:08:11.521Z,2.35
2023-06-01T14:10:38.133Z,3.13
2023-06-01T14:13:04.717Z,2.50
2023-06-01T14:15:31.833Z,2.35
2023-06-01T14:17:58.463Z,2.65
2023-06-01T14:20:25.053Z,2.25
2023-06-01T14:22:51.602Z,2.53
2023-06-01T14:25:18.314Z,1.92
2023-06-01T14:27:44.807Z,2.33
2023-06-01T14:30:11.884Z,2.20
2023-06-01T14:32:38.596Z,2.35
2023-06-01T14:35:06.729Z,2.50
2023-06-01T14:37:48.099Z,2.05
2023-06-01T14:40:16.046Z,2.35
2023-06-01T14:42:42.622Z,2.10
2023-06-01T14:45:09.393Z,2.28
2023-06-01T14:47:36.022Z,2.40
2023-06-01T14:50:02.657Z,2.63
2023-06-01T14:52:29.171Z,2.33
2023-06-01T14:54:55.818Z,2.10
2023-06-01T14:57:22.473Z,2.10
2023-06-01T15:00:02.456Z,2.80
2023-06-01T15:04:57.604Z,1.98
2023-06-01T15:07:24.126Z,2.50
2023-06-01T15:09:50.787Z,2.17
2023-06-01T15:12:17.306Z,2.40
2023-06-01T15:14:44.224Z,2.30
2023-06-01T15:17:11.742Z,2.40
2023-06-01T15:19:38.393Z,2.67
2023-06-01T15:22:05.581Z,2.47
2023-06-01T15:24:32.364Z,1.98
2023-06-01T15:26:58.883Z,1.98
2023-06-01T15:29:25.387Z,2.13
2023-06-01T15:31:52.240Z,3.20
2023-06-01T15:34:20.576Z,2.00
2023-06-01T15:36:47.363Z,2.30
2023-06-01T15:39:14.497Z,2.00
2023-06-01T15:41:41.024Z,2.10
2023-06-01T15:44:07.730Z,2.00
2023-06-01T15:46:34.430Z,2.13
2023-06-01T15:49:01.636Z,2.22
2023-06-01T15:51:28.955Z,2.20
2023-06-01T15:53:55.532Z,2.47
2023-06-01T15:56:22.879Z,2.08
2023-06-01T15:58:50.929Z,2.05
2023-06-01T16:01:29.326Z,3.67
2023-06-01T16:03:56.908Z,2.55
2023-06-01T16:06:23.747Z,2.60
2023-06-01T16:08:50.293Z,2.67
2023-06-01T16:11:16.894Z,2.25
2023-06-01T16:13:43.433Z,2.13
2023-06-01T16:16:10.054Z,2.13
2023-06-01T16:18:36.635Z,2.13
2023-06-01T16:21:03.457Z,2.20
2023-06-01T16:23:30.116Z,2.35
2023-06-01T16:25:56.636Z,2.33
2023-06-01T16:28:23.214Z,2.28
2023-06-01T16:30:49.785Z,2.22
2023-06-01T16:33:16.529Z,2.05
2023-06-01T16:35:43.142Z,3.45
2023-06-01T16:38:09.699Z,2.60
2023-06-01T16:40:36.248Z,2.40
2023-06-01T16:43:02.821Z,2.00
2023-06-01T16:45:31.579Z,2.53
2023-06-01T16:47:58.830Z,2.33
2023-06-01T16:50:26.034Z,1.88
2023-06-01T16:52:52.536Z,2.60
2023-06-01T16:55:19.055Z,2.00
2023-06-01T16:57:45.833Z,2.15
2023-06-01T17:00:13.035Z,2.20
2023-06-01T17:02:40.229Z,2.60
2023-06-01T17:05:07.316Z,2.25
2023-06-01T17:07:33.827Z,2.63
2023-06-01T17:10:00.447Z,2.35
2023-06-01T17:12:27.167Z,2.42
2023-06-01T17:14:53.783Z,2.30
2023-06-01T17:17:20.938Z,2.50
2023-06-01T17:19:47.944Z,2.00
2023-06-01T17:22:14.493Z,2.78
2023-06-01T17:24:41.591Z,2.90
2023-06-01T17:27:08.357Z,2.50
2023-06-01T17:29:35.012Z,2.20
2023-06-01T17:32:05.256Z,2.40
2023-06-01T17:34:31.794Z,2.05
2023-06-01T17:36:58.331Z,2.55
2023-06-01T17:39:24.899Z,2.30
2023-06-01T17:41:52.335Z,2.75
2023-06-01T17:44:19.598Z,2.38
2023-06-01T17:46:46.149Z,2.30
2023-06-01T17:49:12.789Z,2.10
2023-06-01T17:51:41.189Z,2.70
2023-06-01T17:54:08.149Z,2.47
2023-06-01T17:56:35.133Z,2.60
2023-06-01T17:59:02.427Z,2.58
2023-06-01T18:01:29.288Z,2.97
2023-06-01T18:03:56.791Z,2.70
2023-06-01T18:06:23.836Z,2.67
2023-06-01T18:08:50.510Z,2.70
2023-06-01T18:11:17.062Z,2.33
2023-06-01T18:13:43.604Z,2.35
2023-06-01T18:16:10.614Z,2.40
2023-06-01T18:18:37.673Z,2.20
2023-06-01T18:21:04.298Z,2.20
2023-06-01T18:23:30.834Z,2.60
2023-06-01T18:25:57.419Z,2.45
2023-06-01T18:28:23.965Z,2.97
2023-06-01T18:30:50.682Z,2.60
2023-06-01T18:33:17.485Z,2.38
2023-06-01T18:35:44.199Z,2.30
2023-06-01T18:38:10.740Z,2.55
2023-06-01T18:40:37.389Z,2.95
2023-06-01T18:43:04.181Z,2.40
2023-06-01T18:45:32.333Z,2.53
2023-06-01T18:47:59.248Z,2.60
2023-06-01T18:50:26.494Z,2.80
2023-06-01T18:52:53.376Z,2.72
2023-06-01T18:55:20.553Z,2.38
2023-06-01T18:57:49.032Z,2.33
2023-06-01T19:00:15.946Z,2.72
2023-06-01T19:02:45.433Z,2.70
2023-06-01T19:05:12.082Z,2.78
2023-06-01T19:07:39.128Z,3.38
2023-06-01T19:10:10.855Z,2.60
2023-06-01T19:12:37.524Z,2.40
2023-06-01T19:15:09.894Z,2.72
2023-06-01T19:17:38.572Z,2.75
2023-06-01T19:20:05.635Z,3.17
2023-06-01T19:22:32.671Z,3.03
2023-06-01T19:25:00.037Z,2.75
2023-06-01T19:27:26.619Z,2.30
2023-06-01T19:29:53.181Z,3.10
2023-06-01T19:32:19.890Z,2.53
2023-06-01T19:34:46.507Z,3.30
2023-06-01T19:37:14.751Z,3.05
2023-06-01T19:39:43.391Z,2.90
2023-06-01T19:42:19.946Z,2.30
2023-06-01T19:44:48.089Z,2.67
2023-06-01T19:47:43.265Z,2.58
2023-06-01T19:50:25.860Z,2.50
2023-06-01T19:52:52.445Z,2.53
2023-06-01T19:55:18.958Z,2.58
2023-06-01T19:57:45.907Z,2.35
2023-06-01T20:00:12.917Z,3.17
2023-06-01T20:02:46.888Z,2.67
2023-06-01T20:05:14.298Z,2.42
2023-06-01T20:07:41.057Z,2.50
2023-06-01T20:10:16.649Z,2.50
2023-06-01T20:12:43.212Z,2.70
2023-06-01T20:15:09.904Z,2.55
2023-06-01T20:17:36.481Z,2.08
2023-06-01T20:20:06.176Z,2.20
2023-06-01T20:22:32.968Z,2.85
2023-06-01T20:25:00.120Z,3.60
2023-06-01T20:27:26.653Z,2.53
2023-06-01T20:29:53.222Z,2.90
2023-06-01T20:32:26.940Z,2.65
2023-06-01T20:34:53.490Z,2.80
2023-06-01T20:37:20.040Z,2.60
2023-06-01T20:39:46.635Z,2.60
2023-06-01T20:42:13.304Z,2.90
2023-06-01T20:44:39.910Z,2.55
2023-06-01T20:47:06.776Z,2.72
2023-06-01T20:49:33.316Z,2.97
2023-06-01T20:51:59.877Z,2.70
2023-06-01T20:54:28.405Z,3.08
2023-06-01T20:56:56.433Z,2.35
2023-06-01T20:59:28.981Z,2.70
2023-06-01T21:01:56.900Z,2.40
2023-06-01T21:04:27.626Z,3.33
2023-06-01T21:06:54.418Z,2.60
2023-06-01T21:09:23.076Z,2.60
2023-06-01T21:11:51.619Z,2.45
2023-06-01T21:14:18.480Z,2.40
2023-06-01T21:16:45.133Z,2.47
2023-06-01T21:19:11.879Z,2.63
2023-06-01T21:21:38.518Z,2.60
2023-06-01T21:24:05.946Z,2.85
2023-06-01T21:26:34.092Z,2.67
2023-06-01T21:29:01.040Z,2.42
2023-06-01T21:31:27.627Z,2.85
2023-06-01T21:33:54.286Z,2.80
2023-06-01T21:36:20.910Z,2.67
2023-06-01T21:38:47.561Z,2.65
2023-06-01T21:41:14.182Z,3.38
2023-06-01T21:43:40.866Z,3.10
2023-06-01T21:46:07.455Z,2.80
2023-06-01T21:48:34.359Z,2.83
2023-06-01T21:51:01.155Z,2.90
2023-06-01T21:53:27.836Z,2.78
2023-06-01T21:55:54.427Z,3.33
2023-06-01T21:58:22.655Z,2.63
2023-06-01T22:00:49.787Z,2.47
2023-06-01T22:03:17.744Z,3.13
2023-06-01T22:05:44.577Z,2.72
2023-06-01T22:08:11.137Z,3.00
2023-06-01T22:10:37.698Z,2.97
2023-06-01T22:13:04.936Z,2.90
2023-06-01T22:15:31.986Z,2.40
2023-06-01T22:17:58.895Z,3.15
2023-06-01T22:20:25.515Z,2.72
2023-06-01T22:22:52.148Z,3.47
2023-06-01T22:25:18.749Z,3.10
2023-06-01T22:27:45.493Z,2.53
2023-06-01T22:30:12.392Z,4.13
2023-06-01T22:32:39.120Z,3.28
2023-06-01T22:35:06.362Z,2.88
2023-06-01T22:37:33.024Z,2.90
2023-06-01T22:39:59.624Z,3.38
2023-06-01T22:42:26.452Z,3.60
2023-06-01T22:44:53.064Z,3.30
2023-06-01T22:47:19.892Z,3.50
2023-06-01T22:49:46.581Z,2.88
2023-06-01T22:52:14.187Z,2.58
2023-06-01T22:54:41.583Z,3.05
2023-06-01T22:57:08.387Z,2.90
2023-06-01T22:59:35.766Z,2.80
2023-06-01T23:02:02.850Z,3.20
2023-06-01T23:04:30.168Z,3.17
2023-06-01T23:06:56.910Z,3.20
2023-06-01T23:09:26.231Z,2.90
2023-06-01T23:11:53.043Z,2.88
2023-06-01T23:14:34.018Z,3.00
2023-06-01T23:17:04.407Z,3.10
2023-06-01T23:19:32.753Z,2.83
2023-06-01T23:22:06.803Z,2.80
2023-06-01T23:24:33.516Z,2.95
2023-06-01T23:27:01.058Z,3.47
2023-06-01T23:29:28.392Z,3.60
2023-06-01T23:31:55.144Z,3.70
2023-06-01T23:34:21.912Z,2.72
2023-06-01T23:36:50.152Z,2.85
2023-06-01T23:39:16.790Z,3.00
2023-06-01T23:41:43.405Z,3.03
2023-06-01T23:44:09.995Z,2.88
2023-06-01T23:46:36.615Z,3.17
2023-06-01T23:49:04.662Z,2.75
2023-06-01T23:51:31.233Z,2.90
2023-06-01T23:53:57.806Z,3.03
2023-06-01T23:56:24.446Z,2.65
2023-06-01T23:58:51.083Z,2.95
